createdAt,value
2022-07-28T00:00:44.837Z,0.70
2022-07-28T00:01:44.892Z,1.10
2022-07-28T00:02:44.864Z,1.00
2022-07-28T00:03:44.793Z,0.90
2022-07-28T00:04:44.805Z,0.80
2022-07-28T00:05:44.770Z,0.90
2022-07-28T00:06:44.770Z,0.90
2022-07-28T00:07:44.744Z,0.80
2022-07-28T00:08:44.756Z,0.80
2022-07-28T00:09:44.722Z,0.90
2022-07-28T00:10:44.739Z,1.00
2022-07-28T00:11:54.183Z,1.10
2022-07-28T00:12:44.754Z,0.70
2022-07-28T00:13:44.688Z,0.80
2022-07-28T00:14:44.688Z,1.00
2022-07-28T00:15:44.666Z,0.70
2022-07-28T00:16:44.754Z,1.00
2022-07-28T00:17:44.661Z,1.00
2022-07-28T00:18:44.651Z,0.80
2022-07-28T00:19:44.626Z,0.90
2022-07-28T00:20:44.624Z,0.90
2022-07-28T00:21:44.603Z,0.80
2022-07-28T00:22:44.622Z,1.00
2022-07-28T00:23:44.579Z,1.00
2022-07-28T00:24:44.577Z,0.80
2022-07-28T00:25:44.560Z,1.00
2022-07-28T00:26:46.603Z,0.80
2022-07-28T00:27:44.730Z,0.70
2022-07-28T00:28:45.420Z,1.10
2022-07-28T00:29:50.338Z,0.80
2022-07-28T00:30:44.513Z,1.10
2022-07-28T00:31:44.623Z,0.80
2022-07-28T00:32:44.501Z,0.70
2022-07-28T00:33:44.472Z,1.10
2022-07-28T00:34:44.471Z,0.90
2022-07-28T00:35:48.428Z,1.00
2022-07-28T00:36:44.463Z,0.80
2022-07-28T00:37:44.451Z,0.90
2022-07-28T00:38:44.541Z,1.00
2022-07-28T00:39:44.668Z,0.90
2022-07-28T00:40:44.427Z,0.70
2022-07-28T00:41:44.394Z,0.70
2022-07-28T00:42:44.404Z,1.30
2022-07-28T00:43:44.370Z,0.80
2022-07-28T00:44:44.365Z,1.10
2022-07-28T00:45:44.342Z,0.80
2022-07-28T00:46:44.389Z,0.90
2022-07-28T00:47:44.341Z,1.00
2022-07-28T00:48:44.428Z,1.00
2022-07-28T00:49:44.302Z,1.20
2022-07-28T00:50:44.307Z,1.00
2022-07-28T00:51:44.279Z,1.20
2022-07-28T00:52:44.310Z,0.80
2022-07-28T00:53:44.269Z,0.90
2022-07-28T00:54:44.281Z,0.90
2022-07-28T00:56:05.453Z,0.80
2022-07-28T00:56:44.247Z,0.90
2022-07-28T00:57:44.221Z,1.00
2022-07-28T00:58:44.222Z,0.90
2022-07-28T00:59:44.201Z,0.90
2022-07-28T01:00:44.248Z,0.80
2022-07-28T01:01:44.288Z,0.90
2022-07-28T01:02:44.377Z,0.90
2022-07-28T01:03:44.171Z,1.20
2022-07-28T01:04:44.167Z,0.90
2022-07-28T01:05:44.433Z,1.00
2022-07-28T01:06:44.141Z,1.40
2022-07-28T01:07:44.147Z,0.90
2022-07-28T01:08:44.114Z,1.00
2022-07-28T01:09:44.092Z,1.20
2022-07-28T01:10:44.089Z,1.20
2022-07-28T01:11:44.071Z,0.90
2022-07-28T01:12:44.092Z,0.90
2022-07-28T01:13:44.065Z,0.90
2022-07-28T01:14:44.051Z,1.00
2022-07-28T01:15:44.087Z,1.10
2022-07-28T01:16:44.037Z,1.00
2022-07-28T01:17:44.028Z,0.80
2022-07-28T01:18:44.499Z,1.00
2022-07-28T01:19:43.990Z,0.90
2022-07-28T01:20:58.955Z,0.80
2022-07-28T01:21:43.972Z,1.20
2022-07-28T01:22:43.983Z,0.70
2022-07-28T01:23:43.949Z,1.20
2022-07-28T01:24:43.948Z,0.90
2022-07-28T01:25:48.148Z,1.00
2022-07-28T01:26:43.924Z,0.90
2022-07-28T01:27:43.912Z,1.20
2022-07-28T01:28:43.903Z,1.00
2022-07-28T01:29:43.890Z,0.90
2022-07-28T01:30:43.943Z,1.30
2022-07-28T01:31:44.024Z,1.20
2022-07-28T01:32:43.869Z,0.70
2022-07-28T01:33:43.833Z,1.10
2022-07-28T01:34:43.836Z,1.20
2022-07-28T01:35:43.811Z,1.00
2022-07-28T01:36:43.816Z,1.10
2022-07-28T01:37:43.802Z,0.80
2022-07-28T01:38:43.792Z,1.20
2022-07-28T01:39:43.765Z,1.00
2022-07-28T01:40:43.781Z,1.00
2022-07-28T01:41:43.760Z,1.10
2022-07-28T01:42:43.774Z,1.20
2022-07-28T01:43:43.738Z,1.10
2022-07-28T01:44:43.751Z,1.10
2022-07-28T01:45:43.711Z,0.80
2022-07-28T01:46:43.768Z,1.20
2022-07-28T01:47:43.710Z,0.80
2022-07-28T01:48:43.741Z,0.70
2022-07-28T01:49:43.665Z,1.00
2022-07-28T01:50:43.665Z,1.00
2022-07-28T01:51:43.638Z,0.90
2022-07-28T01:52:43.680Z,1.00
2022-07-28T01:53:43.624Z,1.00
2022-07-28T01:54:43.632Z,1.00
2022-07-28T01:55:43.600Z,1.10
2022-07-28T01:56:43.601Z,0.90
2022-07-28T01:57:43.601Z,1.00
2022-07-28T01:58:43.588Z,1.00
2022-07-28T01:59:43.583Z,1.10
2022-07-28T02:00:43.577Z,0.90
2022-07-28T02:01:43.625Z,1.10
2022-07-28T02:02:43.554Z,1.10
2022-07-28T02:03:43.525Z,1.10
2022-07-28T02:04:45.532Z,1.00
2022-07-28T02:05:43.610Z,0.70
2022-07-28T02:06:43.485Z,1.10
2022-07-28T02:07:43.465Z,2.50
2022-07-28T02:08:43.469Z,1.30
2022-07-28T02:09:43.445Z,1.40
2022-07-28T02:10:44.079Z,1.30
2022-07-28T02:11:43.446Z,1.20
2022-07-28T02:12:43.449Z,1.40
2022-07-28T02:13:43.420Z,1.10
2022-07-28T02:14:43.424Z,1.10
2022-07-28T02:15:43.475Z,0.90
2022-07-28T02:16:43.406Z,1.20
2022-07-28T02:17:43.377Z,1.20
2022-07-28T02:18:43.370Z,1.60
2022-07-28T02:19:43.344Z,1.10
2022-07-28T02:20:43.340Z,1.20
2022-07-28T02:21:43.501Z,1.00
2022-07-28T02:22:43.334Z,1.00
2022-07-28T02:23:43.329Z,1.20
2022-07-28T02:24:43.300Z,1.40
2022-07-28T02:25:43.272Z,1.00
2022-07-28T02:26:43.274Z,1.40
2022-07-28T02:27:43.274Z,1.30
2022-07-28T02:28:43.535Z,1.20
2022-07-28T02:29:51.590Z,1.00
2022-07-28T02:30:43.290Z,1.30
2022-07-28T02:31:43.217Z,1.50
2022-07-28T02:32:43.208Z,1.40
2022-07-28T02:34:00.410Z,1.10
2022-07-28T02:34:43.206Z,1.20
2022-07-28T02:35:43.166Z,1.30
2022-07-28T02:36:43.178Z,1.40
2022-07-28T02:37:43.155Z,1.30
2022-07-28T02:38:43.153Z,1.30
2022-07-28T02:39:43.158Z,1.20
2022-07-28T02:40:43.142Z,1.30
2022-07-28T02:41:43.285Z,1.50
2022-07-28T02:42:43.131Z,1.40
2022-07-28T02:43:49.313Z,1.50
2022-07-28T02:44:43.103Z,1.10
2022-07-28T02:45:43.062Z,1.40
2022-07-28T02:46:43.196Z,1.20
2022-07-28T02:47:43.063Z,1.50
2022-07-28T02:48:43.132Z,1.50
2022-07-28T02:49:43.040Z,1.40
2022-07-28T02:50:43.018Z,1.20
2022-07-28T02:51:42.999Z,1.30
2022-07-28T02:52:43.021Z,1.20
2022-07-28T02:53:42.987Z,1.50
2022-07-28T02:54:42.988Z,1.10
2022-07-28T02:55:42.979Z,1.50
2022-07-28T02:56:53.244Z,1.40
2022-07-28T02:57:42.973Z,1.20
2022-07-28T02:58:42.949Z,1.30
2022-07-28T02:59:42.930Z,1.20
2022-07-28T03:00:43.102Z,1.20
2022-07-28T03:01:43.161Z,1.20
2022-07-28T03:02:43.485Z,1.40
2022-07-28T03:03:44.236Z,1.60
2022-07-28T03:04:42.908Z,1.40
2022-07-28T03:05:42.866Z,1.60
2022-07-28T03:06:42.874Z,1.50
2022-07-28T03:07:51.256Z,1.20
2022-07-28T03:08:42.860Z,1.50
2022-07-28T03:09:42.818Z,1.60
2022-07-28T03:10:42.816Z,1.10
2022-07-28T03:11:42.806Z,1.50
2022-07-28T03:12:42.816Z,1.80
2022-07-28T03:13:42.774Z,1.50
2022-07-28T03:14:42.807Z,1.70
2022-07-28T03:15:42.756Z,1.50
2022-07-28T03:16:42.855Z,1.60
2022-07-28T03:17:42.761Z,1.30
2022-07-28T03:18:42.745Z,1.70
2022-07-28T03:19:42.742Z,1.60
2022-07-28T03:20:42.724Z,1.50
2022-07-28T03:21:42.712Z,1.70
2022-07-28T03:22:42.718Z,1.50
2022-07-28T03:23:42.687Z,1.40
2022-07-28T03:24:42.686Z,1.20
2022-07-28T03:25:42.650Z,1.50
2022-07-28T03:26:42.644Z,1.30
2022-07-28T03:27:42.664Z,1.30
2022-07-28T03:28:42.646Z,1.70
2022-07-28T03:29:42.666Z,1.50
2022-07-28T03:30:42.733Z,1.40
2022-07-28T03:31:42.593Z,1.40
2022-07-28T03:32:42.608Z,1.60
2022-07-28T03:33:42.590Z,1.80
2022-07-28T03:34:42.561Z,1.60
2022-07-28T03:35:42.568Z,1.50
2022-07-28T03:36:42.551Z,1.80
2022-07-28T03:37:42.553Z,1.40
2022-07-28T03:38:42.541Z,1.30
2022-07-28T03:39:42.516Z,1.40
2022-07-28T03:40:46.279Z,1.10
2022-07-28T03:41:42.481Z,1.40
2022-07-28T03:42:42.507Z,1.50
2022-07-28T03:43:42.465Z,1.30
2022-07-28T03:44:42.457Z,1.20
2022-07-28T03:45:42.538Z,1.30
2022-07-28T03:46:42.518Z,1.50
2022-07-28T03:47:42.433Z,1.50
2022-07-28T03:48:42.474Z,1.20
2022-07-28T03:49:42.409Z,1.50
2022-07-28T03:50:42.402Z,1.50
2022-07-28T03:51:42.400Z,1.50
2022-07-28T03:52:42.410Z,1.60
2022-07-28T03:53:42.370Z,1.10
2022-07-28T03:54:42.366Z,1.20
2022-07-28T03:55:42.345Z,2.00
2022-07-28T03:56:42.337Z,1.90
2022-07-28T03:57:42.332Z,1.40
2022-07-28T03:58:42.310Z,1.30
2022-07-28T03:59:42.310Z,1.30
2022-07-28T04:00:42.297Z,1.80
2022-07-28T04:01:42.334Z,1.70
2022-07-28T04:02:42.355Z,1.80
2022-07-28T04:03:44.290Z,1.60
2022-07-28T04:04:42.254Z,1.40
2022-07-28T04:05:42.232Z,2.60
2022-07-28T04:06:42.239Z,1.50
2022-07-28T04:07:42.224Z,1.40
2022-07-28T04:08:42.202Z,1.50
2022-07-28T04:09:42.195Z,1.40
2022-07-28T04:10:42.177Z,1.80
2022-07-28T04:11:42.173Z,1.80
2022-07-28T04:12:42.189Z,1.60
2022-07-28T04:13:42.173Z,1.50
2022-07-28T04:14:42.164Z,1.70
2022-07-28T04:15:42.138Z,1.60
2022-07-28T04:16:42.179Z,1.40
2022-07-28T04:17:42.128Z,1.40
2022-07-28T04:18:42.101Z,1.70
2022-07-28T04:19:42.099Z,1.40
2022-07-28T04:20:42.074Z,1.50
2022-07-28T04:21:42.079Z,1.10
2022-07-28T04:22:42.065Z,1.80
2022-07-28T04:23:42.059Z,1.70
2022-07-28T04:24:42.042Z,1.80
2022-07-28T04:25:42.048Z,3.00
2022-07-28T04:26:42.019Z,1.50
2022-07-28T04:27:42.027Z,1.60
2022-07-28T04:28:41.998Z,1.90
2022-07-28T04:29:42.004Z,1.80
2022-07-28T04:30:43.819Z,1.80
2022-07-28T04:31:41.983Z,1.90
2022-07-28T04:32:41.973Z,1.60
2022-07-28T04:33:41.942Z,2.00
2022-07-28T04:34:41.929Z,1.70
2022-07-28T04:35:41.940Z,2.00
2022-07-28T04:36:41.909Z,1.60
2022-07-28T04:37:41.964Z,1.90
2022-07-28T04:38:42.136Z,1.80
2022-07-28T04:39:41.891Z,2.00
2022-07-28T04:40:41.863Z,1.80
2022-07-28T04:41:41.888Z,1.60
2022-07-28T04:42:41.851Z,1.60
2022-07-28T04:43:41.877Z,1.90
2022-07-28T04:44:41.852Z,1.70
2022-07-28T04:45:53.248Z,1.60
2022-07-28T04:46:41.902Z,1.80
2022-07-28T04:47:41.840Z,2.10
2022-07-28T04:48:41.817Z,1.70
2022-07-28T04:49:41.825Z,1.50
2022-07-28T04:50:41.771Z,1.80
2022-07-28T04:51:41.754Z,1.90
2022-07-28T04:52:41.801Z,1.90
2022-07-28T04:53:41.903Z,1.80
2022-07-28T04:54:41.781Z,2.20
2022-07-28T04:55:41.720Z,1.50
2022-07-28T04:56:41.697Z,1.50
2022-07-28T04:57:41.714Z,2.00
2022-07-28T04:58:41.678Z,1.90
2022-07-28T04:59:41.703Z,1.80
2022-07-28T05:00:41.830Z,2.00
2022-07-28T05:01:41.694Z,1.80
2022-07-28T05:02:41.635Z,2.00
2022-07-28T05:03:41.645Z,2.10
2022-07-28T05:04:41.723Z,1.70
2022-07-28T05:05:41.617Z,1.90
2022-07-28T05:06:41.617Z,1.60
2022-07-28T05:07:41.610Z,2.00
2022-07-28T05:08:41.583Z,1.90
2022-07-28T05:09:41.840Z,1.90
2022-07-28T05:10:41.620Z,2.10
2022-07-28T05:11:41.561Z,2.10
2022-07-28T05:12:41.587Z,1.70
2022-07-28T05:13:41.544Z,2.00
2022-07-28T05:14:41.656Z,1.70
2022-07-28T05:15:41.507Z,1.80
2022-07-28T05:16:41.587Z,2.30
2022-07-28T05:17:41.505Z,2.00
2022-07-28T05:18:41.500Z,2.00
2022-07-28T05:19:41.480Z,1.90
2022-07-28T05:20:41.472Z,2.00
2022-07-28T05:21:41.448Z,2.30
2022-07-28T05:22:41.428Z,2.30
2022-07-28T05:23:47.165Z,2.40
2022-07-28T05:24:41.409Z,1.90
2022-07-28T05:25:41.443Z,2.00
2022-07-28T05:26:41.393Z,2.00
2022-07-28T05:27:41.417Z,2.20
2022-07-28T05:28:41.373Z,1.80
2022-07-28T05:29:47.080Z,1.80
2022-07-28T05:30:41.383Z,2.00
2022-07-28T05:31:41.406Z,2.20
2022-07-28T05:32:41.370Z,2.20
2022-07-28T05:33:41.354Z,2.50
2022-07-28T05:34:41.311Z,1.80
2022-07-28T05:35:41.410Z,1.80
2022-07-28T05:36:41.281Z,1.70
2022-07-28T05:37:41.285Z,1.90
2022-07-28T05:38:41.257Z,2.10
2022-07-28T05:39:41.266Z,2.10
2022-07-28T05:40:41.241Z,2.10
2022-07-28T05:41:41.285Z,2.20
2022-07-28T05:42:41.224Z,2.40
2022-07-28T05:43:41.225Z,2.50
2022-07-28T05:44:41.195Z,2.50
2022-07-28T05:45:41.282Z,2.00
2022-07-28T05:46:41.189Z,2.20
2022-07-28T05:47:41.444Z,2.60
2022-07-28T05:48:41.195Z,2.10
2022-07-28T05:49:41.156Z,2.40
2022-07-28T05:50:41.137Z,2.10
2022-07-28T05:51:41.967Z,2.30
2022-07-28T05:52:46.601Z,2.90
2022-07-28T05:53:41.133Z,2.20
2022-07-28T05:54:41.109Z,2.00
2022-07-28T05:56:00.632Z,2.20
2022-07-28T05:56:41.089Z,1.90
2022-07-28T05:57:41.115Z,1.70
2022-07-28T05:58:41.065Z,2.40
2022-07-28T05:59:41.064Z,2.20
2022-07-28T06:00:41.373Z,2.40
2022-07-28T06:01:41.124Z,2.20
2022-07-28T06:02:41.255Z,2.10
2022-07-28T06:03:42.569Z,2.50
2022-07-28T06:04:41.002Z,2.20
2022-07-28T06:05:58.359Z,2.20
2022-07-28T06:06:40.979Z,2.50
2022-07-28T06:07:42.733Z,2.40
2022-07-28T06:08:41.020Z,2.00
2022-07-28T06:09:45.116Z,2.70
2022-07-28T06:10:40.988Z,2.70
2022-07-28T06:11:40.998Z,2.40
2022-07-28T06:12:40.972Z,2.50
2022-07-28T06:13:40.976Z,2.50
2022-07-28T06:14:40.907Z,2.80
2022-07-28T06:15:40.889Z,2.60
2022-07-28T06:16:41.827Z,2.70
2022-07-28T06:17:40.879Z,2.60
2022-07-28T06:18:40.845Z,2.20
2022-07-28T06:19:40.883Z,2.90
2022-07-28T06:20:40.843Z,2.80
2022-07-28T06:21:41.524Z,2.30
2022-07-28T06:22:42.301Z,2.60
2022-07-28T06:23:40.867Z,2.60
2022-07-28T06:24:40.788Z,2.60
2022-07-28T06:25:40.786Z,2.60
2022-07-28T06:26:44.234Z,2.60
2022-07-28T06:27:40.963Z,3.00
2022-07-28T06:28:40.841Z,3.40
2022-07-28T06:29:40.839Z,2.80
2022-07-28T06:30:40.752Z,2.50
2022-07-28T06:31:40.823Z,2.80
2022-07-28T06:32:40.713Z,2.70
2022-07-28T06:33:41.818Z,2.60
2022-07-28T06:34:40.976Z,2.60
2022-07-28T06:35:46.634Z,2.70
2022-07-28T06:36:40.701Z,2.80
2022-07-28T06:37:40.690Z,2.90
2022-07-28T06:38:40.650Z,2.90
2022-07-28T06:39:40.648Z,2.80
2022-07-28T06:40:40.619Z,2.60
2022-07-28T06:41:40.630Z,3.00
2022-07-28T06:42:40.611Z,2.50
2022-07-28T06:43:40.592Z,2.70
2022-07-28T06:44:57.927Z,2.60
2022-07-28T06:45:40.570Z,2.50
2022-07-28T06:46:40.605Z,2.80
2022-07-28T06:47:45.715Z,2.60
2022-07-28T06:48:40.580Z,2.80
2022-07-28T06:49:40.554Z,2.60
2022-07-28T06:50:40.624Z,2.70
2022-07-28T06:51:40.518Z,2.60
2022-07-28T06:52:41.602Z,2.70
2022-07-28T06:53:40.651Z,2.60
2022-07-28T06:54:40.493Z,2.50
2022-07-28T06:55:41.295Z,2.80
2022-07-28T06:56:40.591Z,3.00
2022-07-28T06:57:40.593Z,2.60
2022-07-28T06:58:40.439Z,2.40
2022-07-28T06:59:40.545Z,2.60
2022-07-28T07:00:40.614Z,2.70
2022-07-28T07:01:40.600Z,2.50
2022-07-28T07:02:39.396Z,2.80
2022-07-28T07:03:40.469Z,2.60
2022-07-28T07:04:40.484Z,3.00
2022-07-28T07:05:40.400Z,2.80
2022-07-28T07:06:40.368Z,2.80
2022-07-28T07:07:43.350Z,2.70
2022-07-28T07:08:40.307Z,2.70
2022-07-28T07:09:40.338Z,2.90
2022-07-28T07:10:40.321Z,2.60
2022-07-28T07:11:40.389Z,2.90
2022-07-28T07:12:40.303Z,2.80
2022-07-28T07:13:40.271Z,2.60
2022-07-28T07:14:40.301Z,2.80
2022-07-28T07:15:40.243Z,3.20
2022-07-28T07:16:40.343Z,2.60
2022-07-28T07:17:40.250Z,2.40
2022-07-28T07:18:40.215Z,2.90
2022-07-28T07:19:40.215Z,4.20
2022-07-28T07:20:40.345Z,2.60
2022-07-28T07:21:40.195Z,2.50
2022-07-28T07:22:40.176Z,2.70
2022-07-28T07:23:40.160Z,2.30
2022-07-28T07:24:40.153Z,2.60
2022-07-28T07:25:40.176Z,2.70
2022-07-28T07:26:40.157Z,2.40
2022-07-28T07:27:40.162Z,2.70
2022-07-28T07:28:40.147Z,2.60
2022-07-28T07:29:40.173Z,3.00
2022-07-28T07:30:40.105Z,2.80
2022-07-28T07:31:40.169Z,2.70
2022-07-28T07:32:40.070Z,2.50
2022-07-28T07:33:40.090Z,2.50
2022-07-28T07:34:40.034Z,2.80
2022-07-28T07:35:40.057Z,2.50
2022-07-28T07:36:40.025Z,2.80
2022-07-28T07:37:40.023Z,2.50
2022-07-28T07:38:40.018Z,2.70
2022-07-28T07:39:40.020Z,2.60
2022-07-28T07:40:39.994Z,2.90
2022-07-28T07:41:39.988Z,2.30
2022-07-28T07:42:39.981Z,2.80
2022-07-28T07:43:42.383Z,2.70
2022-07-28T07:44:39.952Z,2.30
2022-07-28T07:45:39.954Z,3.10
2022-07-28T07:46:40.029Z,2.20
2022-07-28T07:47:39.916Z,2.30
2022-07-28T07:48:40.015Z,2.30
2022-07-28T07:49:45.170Z,2.80
2022-07-28T07:50:39.891Z,2.60
2022-07-28T07:51:39.948Z,2.50
2022-07-28T07:52:39.867Z,2.30
2022-07-28T07:53:39.876Z,2.20
2022-07-28T07:54:39.838Z,2.30
2022-07-28T07:55:39.948Z,2.80
2022-07-28T07:56:39.822Z,2.80
2022-07-28T07:57:39.888Z,2.20
2022-07-28T07:58:39.793Z,2.20
2022-07-28T07:59:39.805Z,2.00
2022-07-28T08:00:39.768Z,2.00
2022-07-28T08:01:40.482Z,2.50
2022-07-28T08:02:39.752Z,2.30
2022-07-28T08:03:39.747Z,2.10
2022-07-28T08:04:40.371Z,2.20
2022-07-28T08:05:39.829Z,2.20
2022-07-28T08:06:39.891Z,2.30
2022-07-28T08:07:39.718Z,2.60
2022-07-28T08:08:43.791Z,3.00
2022-07-28T08:09:39.731Z,1.70
2022-07-28T08:10:39.664Z,1.70
2022-07-28T08:11:39.670Z,2.30
2022-07-28T08:12:39.674Z,1.70
2022-07-28T08:13:39.638Z,1.50
2022-07-28T08:14:39.617Z,1.70
2022-07-28T08:15:39.728Z,1.90
2022-07-28T08:16:39.708Z,1.90
2022-07-28T08:17:39.598Z,1.90
2022-07-28T08:18:39.603Z,1.80
2022-07-28T08:19:39.587Z,1.70
2022-07-28T08:20:39.640Z,1.60
2022-07-28T08:21:39.814Z,1.70
2022-07-28T08:22:39.563Z,1.60
2022-07-28T08:23:39.547Z,1.90
2022-07-28T08:24:39.528Z,1.50
2022-07-28T08:25:39.531Z,1.70
2022-07-28T08:26:39.526Z,1.70
2022-07-28T08:27:39.492Z,1.60
2022-07-28T08:28:39.629Z,1.60
2022-07-28T08:29:39.480Z,1.50
2022-07-28T08:30:39.481Z,1.30
2022-07-28T08:31:39.480Z,1.40
2022-07-28T08:32:39.510Z,1.70
2022-07-28T08:33:53.747Z,2.00
2022-07-28T08:34:39.510Z,1.40
2022-07-28T08:35:39.442Z,1.40
2022-07-28T08:36:39.428Z,1.20
2022-07-28T08:37:39.416Z,1.60
2022-07-28T08:38:39.387Z,1.50
2022-07-28T08:39:39.361Z,1.30
2022-07-28T08:40:39.379Z,1.20
2022-07-28T08:41:39.341Z,1.20
2022-07-28T08:42:39.363Z,1.00
2022-07-28T08:43:39.327Z,1.30
2022-07-28T08:44:40.169Z,1.50
2022-07-28T08:45:39.325Z,1.80
2022-07-28T08:46:39.351Z,1.30
2022-07-28T08:47:51.993Z,1.30
2022-07-28T08:48:39.391Z,1.40
2022-07-28T08:49:39.377Z,1.00
2022-07-28T08:50:39.300Z,1.20
2022-07-28T08:51:39.238Z,1.00
2022-07-28T08:52:39.540Z,1.70
2022-07-28T08:53:39.244Z,1.10
2022-07-28T08:54:39.237Z,1.50
2022-07-28T08:55:39.217Z,1.40
2022-07-28T08:56:40.911Z,1.00
2022-07-28T08:57:39.236Z,0.80
2022-07-28T08:58:39.207Z,1.40
2022-07-28T08:59:39.167Z,1.50
2022-07-28T09:00:39.190Z,1.50
2022-07-28T09:01:39.488Z,1.20
2022-07-28T09:02:40.209Z,1.10
2022-07-28T09:03:39.294Z,1.20
2022-07-28T09:04:39.139Z,1.10
2022-07-28T09:05:39.124Z,1.30
2022-07-28T09:06:39.109Z,1.20
2022-07-28T09:07:39.097Z,1.10
2022-07-28T09:08:39.100Z,1.20
2022-07-28T09:09:39.092Z,1.00
2022-07-28T09:11:06.897Z,1.10
2022-07-28T09:11:39.210Z,0.90
2022-07-28T09:12:39.089Z,1.50
2022-07-28T09:13:39.050Z,1.20
2022-07-28T09:14:39.053Z,1.50
2022-07-28T09:15:39.100Z,1.30
2022-07-28T09:16:39.016Z,1.20
2022-07-28T09:17:39.004Z,1.10
2022-07-28T09:18:39.003Z,1.30
2022-07-28T09:19:39.040Z,0.80
2022-07-28T09:20:39.606Z,1.20
2022-07-28T09:21:38.965Z,1.10
2022-07-28T09:22:38.969Z,1.30
2022-07-28T09:23:42.793Z,1.10
2022-07-28T09:24:38.990Z,1.20
2022-07-28T09:25:38.959Z,1.20
2022-07-28T09:26:38.937Z,1.30
2022-07-28T09:27:38.929Z,0.90
2022-07-28T09:28:38.936Z,1.50
2022-07-28T09:29:38.904Z,1.20
2022-07-28T09:30:53.624Z,0.90
2022-07-28T09:31:38.975Z,1.10
2022-07-28T09:32:38.884Z,1.10
2022-07-28T09:33:41.135Z,1.80
2022-07-28T09:34:38.871Z,1.10
2022-07-28T09:35:38.948Z,1.30
2022-07-28T09:36:38.869Z,1.00
2022-07-28T09:37:38.843Z,0.90
2022-07-28T09:38:39.030Z,1.90
2022-07-28T09:39:38.855Z,3.00
2022-07-28T09:40:38.808Z,1.40
2022-07-28T09:41:38.795Z,2.60
2022-07-28T09:42:38.809Z,2.00
2022-07-28T09:43:38.799Z,1.20
2022-07-28T09:44:38.784Z,1.60
2022-07-28T09:45:38.773Z,2.60
2022-07-28T09:46:38.976Z,0.90
2022-07-28T09:47:39.036Z,1.10
2022-07-28T09:48:38.909Z,1.20
2022-07-28T09:49:38.823Z,1.60
2022-07-28T09:50:38.764Z,0.90
2022-07-28T09:51:38.725Z,1.20
2022-07-28T09:52:38.734Z,1.10
2022-07-28T09:53:38.715Z,1.20
2022-07-28T09:54:40.967Z,1.10
2022-07-28T09:55:38.727Z,0.90
2022-07-28T09:56:38.703Z,1.30
2022-07-28T09:57:38.822Z,1.10
2022-07-28T09:58:38.665Z,1.10
2022-07-28T09:59:38.687Z,1.10
2022-07-28T10:00:38.698Z,1.20
2022-07-28T10:01:38.711Z,1.30
2022-07-28T10:02:38.749Z,1.00
2022-07-28T10:03:38.641Z,1.40
2022-07-28T10:04:38.642Z,1.20
2022-07-28T10:05:38.629Z,0.80
2022-07-28T10:06:38.718Z,1.20
2022-07-28T10:07:38.604Z,0.90
2022-07-28T10:08:38.605Z,0.90
2022-07-28T10:09:38.652Z,0.70
2022-07-28T10:10:38.604Z,0.90
2022-07-28T10:11:41.708Z,0.90
2022-07-28T10:12:38.684Z,1.10
2022-07-28T10:13:38.560Z,0.80
2022-07-28T10:14:38.578Z,0.80
2022-07-28T10:15:38.621Z,0.90
2022-07-28T10:16:39.349Z,1.10
2022-07-28T10:17:38.527Z,1.00
2022-07-28T10:18:38.522Z,1.00
2022-07-28T10:19:38.507Z,1.10
2022-07-28T10:20:38.526Z,0.90
2022-07-28T10:21:38.477Z,0.70
2022-07-28T10:22:43.102Z,0.90
2022-07-28T10:23:38.468Z,1.30
2022-07-28T10:24:38.629Z,1.40
2022-07-28T10:25:38.455Z,0.90
2022-07-28T10:26:38.472Z,1.40
2022-07-28T10:27:38.428Z,1.10
2022-07-28T10:28:42.267Z,1.00
2022-07-28T10:29:38.414Z,0.90
2022-07-28T10:30:38.470Z,1.10
2022-07-28T10:31:38.395Z,1.30
2022-07-28T10:32:38.393Z,1.30
2022-07-28T10:33:38.378Z,0.80
2022-07-28T10:34:38.386Z,1.20
2022-07-28T10:35:46.824Z,0.90
2022-07-28T10:36:38.380Z,1.80
2022-07-28T10:37:38.333Z,1.30
2022-07-28T10:38:38.337Z,1.10
2022-07-28T10:39:38.307Z,1.10
2022-07-28T10:40:38.323Z,1.10
2022-07-28T10:41:38.290Z,0.80
2022-07-28T10:42:38.284Z,1.40
2022-07-28T10:43:42.661Z,1.40
2022-07-28T10:44:38.263Z,1.20
2022-07-28T10:46:03.310Z,1.40
2022-07-28T10:46:38.320Z,2.20
2022-07-28T10:47:38.249Z,1.00
2022-07-28T10:48:38.273Z,1.20
2022-07-28T10:49:38.304Z,1.10
2022-07-28T10:50:38.233Z,1.20
2022-07-28T10:51:48.841Z,1.10
2022-07-28T10:52:47.343Z,1.50
2022-07-28T10:53:38.178Z,0.90
2022-07-28T10:54:38.179Z,4.90
2022-07-28T10:55:38.169Z,5.70
2022-07-28T10:56:38.144Z,2.70
2022-07-28T10:57:38.136Z,3.40
2022-07-28T10:58:38.120Z,1.20
2022-07-28T10:59:38.134Z,1.30
2022-07-28T11:00:55.030Z,1.00
2022-07-28T11:01:53.603Z,1.00
2022-07-28T11:02:45.800Z,1.50
2022-07-28T11:03:38.235Z,1.20
2022-07-28T11:04:38.063Z,1.40
2022-07-28T11:05:38.104Z,1.20
2022-07-28T11:06:38.074Z,1.00
2022-07-28T11:07:38.286Z,1.10
2022-07-28T11:08:38.041Z,1.00
2022-07-28T11:09:38.009Z,1.50
2022-07-28T11:10:38.032Z,1.40
2022-07-28T11:11:39.974Z,1.30
2022-07-28T11:12:38.005Z,1.30
2022-07-28T11:13:41.208Z,1.10
2022-07-28T11:14:39.100Z,1.10
2022-07-28T11:15:37.948Z,1.30
2022-07-28T11:16:38.028Z,1.10
2022-07-28T11:17:37.975Z,1.30
2022-07-28T11:18:37.936Z,1.20
2022-07-28T11:19:51.563Z,1.30
2022-07-28T11:20:37.909Z,1.20
2022-07-28T11:21:39.655Z,1.30
2022-07-28T11:22:37.886Z,1.00
2022-07-28T11:23:37.878Z,1.10
2022-07-28T11:24:37.870Z,1.20
2022-07-28T11:25:37.844Z,1.70
2022-07-28T11:26:38.085Z,1.40
2022-07-28T11:27:37.845Z,1.00
2022-07-28T11:28:37.827Z,1.20
2022-07-28T11:29:37.809Z,1.20
2022-07-28T11:30:37.859Z,1.10
2022-07-28T11:31:37.780Z,1.20
2022-07-28T11:32:44.078Z,1.00
2022-07-28T11:33:37.781Z,1.40
2022-07-28T11:34:37.773Z,1.40
2022-07-28T11:35:37.745Z,1.40
2022-07-28T11:36:41.629Z,0.90
2022-07-28T11:37:37.752Z,1.10
2022-07-28T11:38:37.729Z,1.30
2022-07-28T11:39:42.697Z,1.20
2022-07-28T11:40:37.711Z,1.50
2022-07-28T11:41:37.712Z,0.90
2022-07-28T11:42:37.727Z,1.10
2022-07-28T11:43:38.934Z,1.20
2022-07-28T11:44:37.708Z,1.50
2022-07-28T11:45:39.435Z,1.10
2022-07-28T11:46:38.463Z,1.00
2022-07-28T11:47:37.647Z,1.20
2022-07-28T11:48:37.711Z,1.80
2022-07-28T11:49:38.332Z,1.30
2022-07-28T11:50:37.638Z,1.60
2022-07-28T11:51:51.386Z,1.40
2022-07-28T11:52:37.589Z,1.40
2022-07-28T11:53:37.591Z,1.20
2022-07-28T11:54:37.649Z,1.20
2022-07-28T11:55:55.702Z,1.30
2022-07-28T11:56:37.764Z,1.00
2022-07-28T11:57:37.531Z,1.50
2022-07-28T11:58:37.613Z,1.30
2022-07-28T11:59:37.539Z,1.30
2022-07-28T12:00:37.497Z,1.30
2022-07-28T12:01:42.815Z,1.00
2022-07-28T12:02:37.603Z,1.00
2022-07-28T12:03:49.325Z,1.10
2022-07-28T12:04:37.486Z,1.20
2022-07-28T12:05:42.048Z,1.20
2022-07-28T12:06:37.448Z,1.20
2022-07-28T12:07:37.426Z,1.20
2022-07-28T12:08:37.424Z,1.30
2022-07-28T12:09:42.533Z,1.50
2022-07-28T12:10:53.911Z,1.60
2022-07-28T12:11:37.766Z,1.20
2022-07-28T12:12:37.385Z,1.10
2022-07-28T12:13:37.376Z,1.30
2022-07-28T12:14:38.941Z,1.50
2022-07-28T12:15:37.336Z,1.60
2022-07-28T12:16:37.426Z,1.80
2022-07-28T12:17:37.330Z,1.50
2022-07-28T12:18:37.319Z,1.40
2022-07-28T12:19:37.323Z,1.30
2022-07-28T12:20:37.307Z,1.40
2022-07-28T12:21:37.258Z,1.40
2022-07-28T12:22:37.287Z,1.30
2022-07-28T12:23:45.772Z,1.50
2022-07-28T12:24:46.102Z,1.40
2022-07-28T12:25:37.217Z,1.20
2022-07-28T12:26:41.017Z,1.30
2022-07-28T12:27:37.560Z,1.50
2022-07-28T12:28:37.180Z,1.30
2022-07-28T12:29:37.185Z,1.60
2022-07-28T12:30:37.167Z,1.40
2022-07-28T12:31:37.286Z,1.40
2022-07-28T12:32:37.185Z,1.30
2022-07-28T12:33:37.132Z,1.60
2022-07-28T12:34:37.197Z,1.60
2022-07-28T12:35:37.107Z,1.20
2022-07-28T12:36:44.821Z,1.30
2022-07-28T12:37:37.131Z,1.30
2022-07-28T12:38:37.092Z,1.60
2022-07-28T12:39:37.073Z,1.70
2022-07-28T12:40:37.065Z,1.30
2022-07-28T12:41:37.102Z,1.50
2022-07-28T12:42:37.114Z,1.30
2022-07-28T12:43:37.040Z,1.30
2022-07-28T12:44:37.012Z,1.40
2022-07-28T12:45:37.080Z,1.60
2022-07-28T12:46:37.009Z,1.70
2022-07-28T12:47:37.012Z,1.40
2022-07-28T12:48:36.984Z,1.20
2022-07-28T12:49:36.983Z,1.40
2022-07-28T12:50:36.943Z,1.50
2022-07-28T12:51:37.055Z,1.50
2022-07-28T12:52:36.943Z,1.50
2022-07-28T12:53:36.924Z,1.40
2022-07-28T12:54:36.922Z,1.10
2022-07-28T12:55:36.917Z,1.50
2022-07-28T12:56:36.885Z,1.10
2022-07-28T12:57:36.910Z,1.10
2022-07-28T12:58:36.875Z,1.30
2022-07-28T12:59:36.878Z,1.50
2022-07-28T13:00:36.845Z,1.30
2022-07-28T13:01:36.994Z,1.70
2022-07-28T13:02:37.015Z,1.50
2022-07-28T13:03:37.606Z,1.70
2022-07-28T13:04:36.803Z,1.60
2022-07-28T13:05:36.817Z,0.90
2022-07-28T13:06:36.792Z,1.40
2022-07-28T13:07:36.823Z,1.50
2022-07-28T13:08:36.788Z,1.60
2022-07-28T13:09:36.769Z,1.00
2022-07-28T13:10:36.737Z,1.50
2022-07-28T13:11:46.046Z,1.40
2022-07-28T13:12:36.736Z,1.20
2022-07-28T13:13:36.787Z,1.30
2022-07-28T13:14:36.694Z,1.20
2022-07-28T13:15:36.724Z,1.60
2022-07-28T13:16:36.704Z,1.20
2022-07-28T13:17:36.733Z,1.60
2022-07-28T13:18:36.769Z,1.30